createdAt,value
2019-04-06T00:01:47.725Z,100687.64
2019-04-06T00:04:16.842Z,100688.32
2019-04-06T00:06:46.432Z,100691.12
2019-04-06T00:09:17.459Z,100695.17
2019-04-06T00:11:46.381Z,100697.44
2019-04-06T00:14:15.688Z,100701.04
2019-04-06T00:16:44.751Z,100704.29
2019-04-06T00:19:13.601Z,100704.81
2019-04-06T00:21:43.652Z,100699.65
2019-04-06T00:24:12.597Z,100700.24
2019-04-06T00:26:41.695Z,100711.83
2019-04-06T00:29:14.683Z,100709.41
2019-04-06T00:31:53.840Z,100706.83
2019-04-06T00:34:24.724Z,100701.17
2019-04-06T00:36:53.830Z,100709.66
2019-04-06T00:39:23.889Z,100710.23
2019-04-06T00:41:53.047Z,100720.11
2019-04-06T00:44:22.033Z,100726.51
2019-04-06T00:46:51.291Z,100726.09
2019-04-06T00:49:20.555Z,100724.80
2019-04-06T00:51:49.499Z,100724.44
2019-04-06T00:54:18.592Z,100720.11
2019-04-06T00:56:47.783Z,100719.78
2019-04-06T00:59:16.806Z,100719.45
2019-04-06T01:01:46.026Z,100727.05
2019-04-06T01:04:15.218Z,100724.10
2019-04-06T01:06:44.415Z,100725.58
2019-04-06T01:09:13.466Z,100721.63
2019-04-06T01:11:42.438Z,100726.58
2019-04-06T01:14:11.613Z,100729.73
2019-04-06T01:16:40.939Z,100729.83
2019-04-06T01:19:10.030Z,100737.47
2019-04-06T01:21:39.187Z,100741.45
2019-04-06T01:24:08.081Z,100748.60
2019-04-06T01:26:37.321Z,100748.24
2019-04-06T01:29:06.548Z,100755.29
2019-04-06T01:31:35.751Z,100755.77
2019-04-06T01:34:04.922Z,100764.13
2019-04-06T01:36:33.996Z,100761.09
2019-04-06T01:39:03.487Z,100759.73
2019-04-06T01:41:32.336Z,100761.03
2019-04-06T01:44:01.534Z,100765.88
2019-04-06T01:46:30.676Z,100761.12
2019-04-06T01:48:59.742Z,100757.56
2019-04-06T01:51:28.628Z,100760.64
2019-04-06T01:53:57.831Z,100756.24
2019-04-06T01:56:26.991Z,100755.43
2019-04-06T01:58:56.144Z,100756.89
2019-04-06T02:01:36.947Z,100754.64
2019-04-06T02:04:06.166Z,100751.60
2019-04-06T02:06:35.317Z,100755.15
2019-04-06T02:09:06.189Z,100747.27
2019-04-06T02:11:35.798Z,100747.77
2019-04-06T02:14:04.709Z,100750.02
2019-04-06T02:16:33.543Z,100746.08
2019-04-06T02:19:02.775Z,100743.01
2019-04-06T02:21:31.991Z,100739.55
2019-04-06T02:24:01.077Z,100742.67
2019-04-06T02:26:31.303Z,100749.77
2019-04-06T02:29:00.749Z,100742.80
2019-04-06T02:31:48.285Z,100730.56
2019-04-06T02:34:29.131Z,100729.71
2019-04-06T02:37:36.355Z,100730.19
2019-04-06T02:40:31.493Z,100726.69
2019-04-06T02:43:28.602Z,100728.52
2019-04-06T02:45:58.205Z,100725.03
2019-04-06T02:48:27.585Z,100737.02
2019-04-06T02:50:56.889Z,100736.17
2019-04-06T02:53:25.890Z,100723.87
2019-04-06T02:55:54.858Z,100727.39
2019-04-06T02:58:24.940Z,100715.48
2019-04-06T03:00:54.881Z,100713.79
2019-04-06T03:03:24.686Z,100720.43
2019-04-06T03:05:53.907Z,100720.91
2019-04-06T03:08:23.242Z,100718.28
2019-04-06T03:10:52.319Z,100714.83
2019-04-06T03:13:21.893Z,100681.20
2019-04-06T03:15:51.971Z,100714.84
2019-04-06T03:18:20.727Z,100707.81
2019-04-06T03:20:50.115Z,100701.62
2019-04-06T03:23:19.351Z,100701.22
2019-04-06T03:25:48.394Z,100706.95
2019-04-06T03:28:17.479Z,100704.82
2019-04-06T03:30:47.247Z,100699.98
2019-04-06T03:33:16.509Z,100696.48
2019-04-06T03:35:48.465Z,100690.34
2019-04-06T03:38:16.346Z,100690.83
2019-04-06T03:40:45.572Z,100692.98
2019-04-06T03:43:14.791Z,100690.41
2019-04-06T03:45:43.725Z,100691.30
2019-04-06T03:48:13.457Z,100687.81
2019-04-06T03:50:42.544Z,100692.62
2019-04-06T03:53:11.753Z,100697.48
2019-04-06T03:55:42.592Z,100694.00
2019-04-06T03:58:11.690Z,100698.09
2019-04-06T04:00:40.540Z,100694.13
2019-04-06T04:03:10.593Z,100699.41
2019-04-06T04:05:39.872Z,100699.41
2019-04-06T04:08:08.921Z,100697.20
2019-04-06T04:10:39.006Z,100696.77
2019-04-06T04:13:08.016Z,100702.51
2019-04-06T04:15:36.870Z,100704.77
2019-04-06T04:18:06.181Z,100703.44
2019-04-06T04:20:35.315Z,100709.22
2019-04-06T04:23:04.590Z,100710.20
2019-04-06T04:25:35.635Z,100710.66
2019-04-06T04:28:04.173Z,100706.70
2019-04-06T04:30:35.316Z,100701.50
2019-04-06T04:33:04.469Z,100705.95
2019-04-06T04:35:33.645Z,100704.70
2019-04-06T04:38:02.883Z,100704.20
2019-04-06T04:40:32.135Z,100696.27
2019-04-06T04:43:01.227Z,100698.52
2019-04-06T04:45:30.563Z,100698.09
2019-04-06T04:47:59.551Z,100692.41
2019-04-06T04:50:28.652Z,100698.16
2019-04-06T04:52:58.071Z,100696.94
2019-04-06T04:55:27.036Z,100703.55
2019-04-06T04:57:56.268Z,100704.40
2019-04-06T05:00:25.156Z,100709.66
2019-04-06T05:02:54.194Z,100717.17
2019-04-06T05:05:23.241Z,100718.96
2019-04-06T05:07:52.776Z,100713.22
2019-04-06T05:10:22.112Z,100720.16
2019-04-06T05:12:51.539Z,100725.30
2019-04-06T05:15:30.400Z,100717.28
2019-04-06T05:17:59.259Z,100717.61
2019-04-06T05:20:28.486Z,100716.61
2019-04-06T05:22:57.456Z,100720.45
2019-04-06T05:25:26.688Z,100716.77
2019-04-06T05:27:55.638Z,100715.70
2019-04-06T05:30:24.959Z,100720.88
2019-04-06T05:32:54.161Z,100727.78
2019-04-06T05:35:23.912Z,100724.05
2019-04-06T05:37:52.919Z,100718.64
2019-04-06T05:40:21.938Z,100722.87
2019-04-06T05:42:51.500Z,100723.12
2019-04-06T05:45:20.891Z,100721.63
2019-04-06T05:47:49.793Z,100720.16
2019-04-06T05:50:18.700Z,100720.34
2019-04-06T05:52:47.530Z,100721.87
2019-04-06T05:55:16.707Z,100721.25
2019-04-06T05:57:45.586Z,100724.13
2019-04-06T06:00:14.915Z,100723.43
2019-04-06T06:02:43.979Z,100720.11
2019-04-06T06:05:13.004Z,100715.84
2019-04-06T06:07:42.178Z,100722.20
2019-04-06T06:10:11.695Z,100721.06
2019-04-06T06:12:41.273Z,100725.05
2019-04-06T06:15:10.363Z,100723.77
2019-04-06T06:17:39.600Z,100732.84
2019-04-06T06:20:09.373Z,100737.23
2019-04-06T06:22:38.463Z,100752.20
2019-04-06T06:25:08.564Z,100748.08
2019-04-06T06:27:37.564Z,100742.69
2019-04-06T06:30:08.968Z,100748.94
2019-04-06T06:32:38.293Z,100742.98
2019-04-06T06:35:07.219Z,100732.07
2019-04-06T06:37:37.231Z,100733.69
2019-04-06T06:40:06.932Z,100727.72
2019-04-06T06:42:36.085Z,100733.00
2019-04-06T06:45:07.675Z,100733.19
2019-04-06T06:47:36.706Z,100724.55
2019-04-06T06:50:06.617Z,100725.75
2019-04-06T06:52:35.903Z,100718.98
2019-04-06T06:55:06.291Z,100713.51
2019-04-06T06:57:35.404Z,100711.77
2019-04-06T07:00:04.961Z,100718.29
2019-04-06T07:02:36.924Z,100723.70
2019-04-06T07:05:07.397Z,100728.25
2019-04-06T07:07:36.564Z,100733.20
2019-04-06T07:10:06.761Z,100728.95
2019-04-06T07:12:35.792Z,100731.48
2019-04-06T07:15:05.879Z,100737.09
2019-04-06T07:17:35.551Z,100727.80
2019-04-06T07:20:05.907Z,100727.88
2019-04-06T07:22:35.428Z,100719.48
2019-04-06T07:25:04.729Z,100724.80
2019-04-06T07:27:33.739Z,100728.79
2019-04-06T07:30:03.276Z,100727.96
2019-04-06T07:32:32.375Z,100732.27
2019-04-06T07:35:01.408Z,100737.68
2019-04-06T07:37:30.437Z,100736.06
2019-04-06T07:39:59.777Z,100723.64
2019-04-06T07:42:29.478Z,100726.31
2019-04-06T07:44:58.672Z,100730.31
2019-04-06T07:47:27.683Z,100731.80
2019-04-06T07:49:57.023Z,100737.77
2019-04-06T07:52:26.246Z,100739.36
2019-04-06T07:54:55.309Z,100738.41
2019-04-06T07:57:24.748Z,100731.95
2019-04-06T07:59:53.632Z,100731.07
2019-04-06T08:02:22.720Z,100738.15
2019-04-06T08:04:51.962Z,100738.68
2019-04-06T08:07:22.206Z,100737.42
2019-04-06T08:09:51.274Z,100732.34
2019-04-06T08:12:20.370Z,100730.14
2019-04-06T08:14:50.176Z,100725.77
2019-04-06T08:17:19.093Z,100723.50
2019-04-06T08:19:48.394Z,100725.55
2019-04-06T08:22:17.317Z,100730.45
2019-04-06T08:24:46.322Z,100724.81
2019-04-06T08:27:15.748Z,100722.59
2019-04-06T08:29:45.086Z,100728.15
2019-04-06T08:32:14.553Z,100722.23
2019-04-06T08:34:43.755Z,100713.23
2019-04-06T08:37:13.004Z,100705.84
2019-04-06T08:39:42.317Z,100705.05
2019-04-06T08:42:11.451Z,100706.07
2019-04-06T08:44:40.656Z,100703.54
2019-04-06T08:47:09.829Z,100714.47
2019-04-06T08:49:46.342Z,100714.61
2019-04-06T08:52:15.543Z,100713.22
2019-04-06T08:54:45.118Z,100715.69
2019-04-06T08:57:15.134Z,100713.34
2019-04-06T08:59:53.882Z,100709.62
2019-04-06T09:02:23.426Z,100713.84
2019-04-06T09:04:53.079Z,100711.31
2019-04-06T09:07:22.333Z,100702.53
2019-04-06T09:09:51.591Z,100700.70
2019-04-06T09:12:20.957Z,100698.13
2019-04-06T09:14:49.921Z,100694.91
2019-04-06T09:17:19.219Z,100694.23
2019-04-06T09:19:48.257Z,100702.32
2019-04-06T09:22:18.551Z,100699.13
2019-04-06T09:24:48.151Z,100700.76
2019-04-06T09:27:17.964Z,100709.34
2019-04-06T09:29:47.108Z,100712.88
2019-04-06T09:32:18.862Z,100704.77
2019-04-06T09:34:47.817Z,100704.80
2019-04-06T09:37:17.835Z,100702.13
2019-04-06T09:39:47.953Z,100700.93
2019-04-06T09:42:17.843Z,100701.27
2019-04-06T09:45:09.408Z,100703.61
2019-04-06T09:47:58.357Z,100709.20
2019-04-06T09:50:52.858Z,100697.20
2019-04-06T09:53:45.003Z,100699.13
2019-04-06T09:56:22.220Z,100697.76
2019-04-06T09:59:00.098Z,100693.41
2019-04-06T10:01:54.423Z,100688.36
2019-04-06T10:05:01.418Z,100688.77
2019-04-06T10:07:48.079Z,100682.01
2019-04-06T10:10:35.445Z,100687.92
2019-04-06T10:13:13.550Z,100691.97
2019-04-06T10:16:01.201Z,100686.86
2019-04-06T10:18:36.335Z,100686.86
2019-04-06T10:21:23.784Z,100686.86
2019-04-06T10:24:01.351Z,100687.23
2019-04-06T10:27:22.038Z,100686.27
2019-04-06T10:30:17.203Z,100683.53
2019-04-06T10:32:59.421Z,100681.27
2019-04-06T10:35:52.296Z,100683.77
2019-04-06T10:38:41.660Z,100677.05
2019-04-06T10:41:38.698Z,100676.56
2019-04-06T10:44:26.638Z,100674.50
2019-04-06T10:47:23.971Z,100674.45
2019-04-06T10:50:05.159Z,100672.94
2019-04-06T10:52:42.304Z,100675.98
2019-04-06T10:55:30.069Z,100677.56
2019-04-06T10:58:20.280Z,100678.19
2019-04-06T11:01:05.151Z,100670.72
2019-04-06T11:03:40.181Z,100666.31
2019-04-06T11:06:35.166Z,100670.84
2019-04-06T11:09:23.815Z,100664.50
2019-04-06T11:12:00.608Z,100664.50
2019-04-06T11:14:45.548Z,100677.69
2019-04-06T11:17:37.173Z,100673.19
2019-04-06T11:20:24.192Z,100673.19
2019-04-06T11:23:07.461Z,100664.97
2019-04-06T11:26:07.820Z,100657.34
2019-04-06T11:28:58.599Z,100657.99
2019-04-06T11:31:45.380Z,100657.99
2019-04-06T11:34:28.862Z,100666.23
2019-04-06T11:37:16.050Z,100654.33
2019-04-06T11:40:03.698Z,100654.55
2019-04-06T11:42:50.728Z,100655.33
2019-04-06T11:45:39.702Z,100642.38
2019-04-06T11:49:24.775Z,100655.11
2019-04-06T11:52:12.983Z,100639.96
2019-04-06T11:55:07.973Z,100639.97
2019-04-06T11:57:54.714Z,100641.56
2019-04-06T12:00:37.415Z,100631.70
2019-04-06T12:03:24.526Z,100636.98
2019-04-06T12:06:01.130Z,100637.35
2019-04-06T12:08:43.326Z,100635.55
2019-04-06T12:11:29.140Z,100638.23
2019-04-06T12:14:42.316Z,100638.22
2019-04-06T12:17:33.424Z,100635.40
2019-04-06T12:20:36.818Z,100632.04
2019-04-06T12:23:24.631Z,100622.78
2019-04-06T12:26:00.481Z,100629.05
2019-04-06T12:28:47.462Z,100620.83
2019-04-06T12:31:34.733Z,100626.40
2019-04-06T12:34:12.663Z,100610.15
2019-04-06T12:36:51.469Z,100619.08
2019-04-06T12:39:27.536Z,100618.00
2019-04-06T12:42:22.799Z,100617.19
2019-04-06T12:45:21.930Z,100613.27
2019-04-06T12:48:19.711Z,100616.04
2019-04-06T12:51:00.020Z,100616.25
2019-04-06T12:53:51.499Z,100613.66
2019-04-06T12:56:40.331Z,100615.64
2019-04-06T12:59:31.665Z,100616.36
2019-04-06T13:02:18.199Z,100609.39
2019-04-06T13:05:15.317Z,100605.23
2019-04-06T13:08:10.038Z,100597.27
2019-04-06T13:10:58.249Z,100598.26
2019-04-06T13:13:47.045Z,100601.12
2019-04-06T13:16:47.339Z,100596.96
2019-04-06T13:19:40.780Z,100594.15
2019-04-06T13:22:36.657Z,100594.67
2019-04-06T13:25:39.814Z,100584.73
2019-04-06T13:28:27.812Z,100596.52
2019-04-06T13:31:08.523Z,100594.67
2019-04-06T13:34:02.630Z,100588.26
2019-04-06T13:36:54.106Z,100583.77
2019-04-06T13:39:42.129Z,100581.56
2019-04-06T13:42:29.185Z,100584.63
2019-04-06T13:45:20.310Z,100580.80
2019-04-06T13:48:07.336Z,100581.29
2019-04-06T13:50:45.764Z,100583.13
2019-04-06T13:53:45.116Z,100583.39
2019-04-06T13:56:39.062Z,100583.39
2019-04-06T13:59:39.788Z,100584.25
2019-04-06T14:05:38.909Z,100573.08
2019-04-06T14:08:20.695Z,100573.56
2019-04-06T14:11:05.960Z,100577.02
2019-04-06T14:13:57.591Z,100572.47
2019-04-06T14:16:45.884Z,100577.13
2019-04-06T14:19:46.449Z,100576.41
2019-04-06T14:22:38.183Z,100579.00
2019-04-06T14:25:26.494Z,100577.28
2019-04-06T14:28:09.412Z,100573.83
2019-04-06T14:30:58.309Z,100575.66
2019-04-06T14:34:05.397Z,100567.92
2019-04-06T14:37:05.359Z,100572.73
2019-04-06T14:40:21.560Z,100580.09
2019-04-06T14:43:19.210Z,100574.31
2019-04-06T14:45:56.889Z,100570.52
2019-04-06T14:48:36.791Z,100564.34
2019-04-06T14:54:12.922Z,100563.27
2019-04-06T14:56:50.725Z,100567.92
2019-04-06T15:02:38.268Z,100568.67
2019-04-06T15:05:38.681Z,100568.05
2019-04-06T15:08:27.358Z,100571.98
2019-04-06T15:11:15.354Z,100566.09
2019-04-06T15:14:02.217Z,100576.37
2019-04-06T15:16:51.201Z,100566.43
2019-04-06T15:19:37.038Z,100575.13
2019-04-06T15:22:20.827Z,100571.78
2019-04-06T15:25:05.199Z,100573.23
2019-04-06T15:27:56.780Z,100571.88
2019-04-06T15:30:38.490Z,100571.83
2019-04-06T15:33:35.304Z,100573.65
2019-04-06T15:36:35.519Z,100576.00
2019-04-06T15:39:25.338Z,100574.59
2019-04-06T15:42:05.844Z,100578.09
2019-04-06T15:44:42.861Z,100567.98
2019-04-06T15:47:30.011Z,100576.05
2019-04-06T15:50:22.972Z,100570.25
2019-04-06T15:52:58.313Z,100569.26
2019-04-06T15:55:40.580Z,100568.98
2019-04-06T15:58:18.427Z,100572.86
2019-04-06T16:01:12.860Z,100564.39
2019-04-06T16:03:52.748Z,100577.75
2019-04-06T16:06:47.166Z,100564.82
2019-04-06T16:09:32.128Z,100572.42
2019-04-06T16:12:13.925Z,100569.56
2019-04-06T16:14:56.502Z,100572.36
2019-04-06T16:17:35.254Z,100573.09
2019-04-06T16:20:26.569Z,100576.88
2019-04-06T16:23:06.260Z,100580.52
2019-04-06T16:25:50.933Z,100580.52
2019-04-06T16:28:29.010Z,100581.56
2019-04-06T16:31:16.373Z,100584.71
2019-04-06T16:34:11.474Z,100584.71
2019-04-06T16:36:53.401Z,100582.45
2019-04-06T16:39:45.788Z,100584.86
2019-04-06T16:42:35.858Z,100580.77
2019-04-06T16:45:23.861Z,100581.48
2019-04-06T16:48:02.049Z,100586.77
2019-04-06T16:50:44.522Z,100576.85
2019-04-06T16:53:32.818Z,100576.85
2019-04-06T16:56:25.951Z,100588.48
2019-04-06T16:59:01.433Z,100590.16
2019-04-06T17:01:43.280Z,100591.16
2019-04-06T17:04:22.966Z,100587.53
2019-04-06T17:06:59.632Z,100591.02
2019-04-06T17:10:00.374Z,100592.81
2019-04-06T17:12:46.663Z,100592.81
2019-04-06T17:15:36.319Z,100596.87
2019-04-06T17:18:23.667Z,100602.02
2019-04-06T17:21:03.885Z,100601.17
2019-04-06T17:23:38.575Z,100597.70
2019-04-06T17:26:28.939Z,100604.27
2019-04-06T17:29:11.992Z,100609.08
2019-04-06T17:31:59.067Z,100609.01
2019-04-06T17:34:54.420Z,100611.31
2019-04-06T17:37:30.592Z,100617.56
2019-04-06T17:40:23.677Z,100616.22
2019-04-06T17:43:21.482Z,100617.17
2019-04-06T17:46:00.717Z,100623.52
2019-04-06T17:48:48.761Z,100623.69
2019-04-06T17:51:37.306Z,100622.16
2019-04-06T17:54:43.566Z,100622.81
2019-04-06T17:57:38.145Z,100623.67
2019-04-06T18:03:38.573Z,100627.07
2019-04-06T18:06:18.827Z,100625.83
2019-04-06T18:09:06.478Z,100629.05
2019-04-06T18:11:43.247Z,100625.95
2019-04-06T18:14:12.572Z,100628.14
2019-04-06T18:16:42.049Z,100631.19
2019-04-06T18:19:11.758Z,100633.76
2019-04-06T18:21:41.050Z,100634.98
2019-04-06T18:24:11.164Z,100631.71
2019-04-06T18:26:40.345Z,100638.86
2019-04-06T18:29:10.815Z,100637.32
2019-04-06T18:32:08.628Z,100637.28
2019-04-06T18:34:37.763Z,100645.84
2019-04-06T18:37:29.143Z,100643.98
2019-04-06T18:39:59.375Z,100646.14
2019-04-06T18:42:28.609Z,100648.30
2019-04-06T18:44:58.788Z,100654.41
2019-04-06T18:47:30.059Z,100656.92
2019-04-06T18:49:59.326Z,100662.15
2019-04-06T18:52:28.444Z,100658.94
2019-04-06T18:54:57.609Z,100656.67
2019-04-06T18:57:26.999Z,100656.14
2019-04-06T18:59:56.443Z,100656.80
2019-04-06T19:02:25.879Z,100663.44
2019-04-06T19:04:55.250Z,100662.72
2019-04-06T19:07:24.544Z,100661.09
2019-04-06T19:09:53.851Z,100668.88
2019-04-06T19:12:22.932Z,100664.42
2019-04-06T19:14:52.302Z,100671.98
2019-04-06T19:17:21.750Z,100673.25
2019-04-06T19:19:52.233Z,100669.95
2019-04-06T19:22:21.555Z,100666.80
2019-04-06T19:24:51.042Z,100665.25
2019-04-06T19:27:20.613Z,100667.13
2019-04-06T19:29:49.905Z,100663.97
2019-04-06T19:32:19.690Z,100669.56
2019-04-06T19:34:48.783Z,100669.81
2019-04-06T19:37:18.043Z,100673.56
2019-04-06T19:39:47.777Z,100665.78
2019-04-06T19:42:16.775Z,100681.90
2019-04-06T19:44:46.351Z,100681.67
2019-04-06T19:47:15.799Z,100682.61
2019-04-06T19:49:44.991Z,100682.41
2019-04-06T19:52:14.202Z,100680.91
2019-04-06T19:54:43.865Z,100682.39
2019-04-06T19:57:13.139Z,100683.63
2019-04-06T19:59:42.833Z,100688.91
2019-04-06T20:02:12.170Z,100688.34
2019-04-06T20:04:42.009Z,100684.06
2019-04-06T20:07:11.622Z,100683.89
2019-04-06T20:09:49.321Z,100684.06
2019-04-06T20:12:18.434Z,100680.25
2019-04-06T20:14:47.697Z,100681.81
2019-04-06T20:17:17.598Z,100682.52
2019-04-06T20:19:46.653Z,100682.11
2019-04-06T20:22:15.596Z,100679.56
2019-04-06T20:24:45.088Z,100679.20
2019-04-06T20:27:15.564Z,100681.00
2019-04-06T20:29:45.426Z,100675.19
2019-04-06T20:32:14.738Z,100677.86
2019-04-06T20:34:43.739Z,100671.95
2019-04-06T20:37:13.879Z,100672.89
2019-04-06T20:39:43.645Z,100674.22
2019-04-06T20:42:13.360Z,100672.89
2019-04-06T20:44:43.992Z,100673.92
2019-04-06T20:47:12.987Z,100671.84
2019-04-06T20:49:42.882Z,100674.67
2019-04-06T20:52:12.517Z,100677.01
2019-04-06T20:54:41.714Z,100674.50
2019-04-06T20:57:11.007Z,100676.89
2019-04-06T20:59:40.445Z,100678.45
2019-04-06T21:02:09.457Z,100682.28
2019-04-06T21:04:38.945Z,100679.83
2019-04-06T21:07:08.977Z,100677.29
2019-04-06T21:09:38.370Z,100673.97
2019-04-06T21:12:07.793Z,100676.36
2019-04-06T21:14:37.166Z,100675.70
2019-04-06T21:17:07.076Z,100673.72
2019-04-06T21:19:36.200Z,100674.00
2019-04-06T21:22:05.806Z,100677.34
2019-04-06T21:24:35.058Z,100674.80
2019-04-06T21:27:04.317Z,100669.21
2019-04-06T21:29:33.575Z,100668.52
2019-04-06T21:32:03.443Z,100669.98
2019-04-06T21:34:32.765Z,100670.13
2019-04-06T21:37:02.123Z,100673.44
2019-04-06T21:39:32.425Z,100671.85
2019-04-06T21:42:01.623Z,100668.93
2019-04-06T21:44:32.068Z,100669.98
2019-04-06T21:47:02.605Z,100668.85
2019-04-06T21:49:32.372Z,100669.12
2019-04-06T21:52:02.311Z,100668.05
2019-04-06T21:54:31.596Z,100665.03
2019-04-06T21:57:00.547Z,100671.70
2019-04-06T21:59:30.244Z,100670.98
2019-04-06T22:01:59.503Z,100672.42
2019-04-06T22:04:29.353Z,100668.16
2019-04-06T22:06:58.400Z,100671.44
2019-04-06T22:09:27.847Z,100657.30
2019-04-06T22:11:58.405Z,100665.03
2019-04-06T22:14:28.345Z,100668.69
2019-04-06T22:16:58.388Z,100660.34
2019-04-06T22:19:28.002Z,100662.59
2019-04-06T22:21:57.179Z,100666.33
2019-04-06T22:24:27.299Z,100669.14
2019-04-06T22:26:57.385Z,100664.73
2019-04-06T22:29:26.743Z,100663.52
2019-04-06T22:31:56.029Z,100662.73
2019-04-06T22:34:34.750Z,100662.84
2019-04-06T22:36:56.115Z,100665.16
2019-04-06T22:39:25.086Z,100664.63
2019-04-06T22:41:54.895Z,100662.52
2019-04-06T22:44:24.651Z,100657.34
2019-04-06T22:46:54.187Z,100663.18
2019-04-06T22:49:23.888Z,100657.96
2019-04-06T22:51:53.145Z,100655.90
2019-04-06T22:54:23.191Z,100656.09
2019-04-06T22:56:54.402Z,100655.33
2019-04-06T22:59:23.615Z,100666.17
2019-04-06T23:01:53.486Z,100654.30
2019-04-06T23:04:47.594Z,100658.83
2019-04-06T23:07:14.135Z,100655.41
2019-04-06T23:09:43.932Z,100657.80
2019-04-06T23:12:13.607Z,100660.10
2019-04-06T23:14:43.137Z,100658.50
2019-04-06T23:17:12.298Z,100661.67
2019-04-06T23:19:42.008Z,100654.09
2019-04-06T23:22:11.507Z,100658.22
2019-04-06T23:24:40.816Z,100658.78
2019-04-06T23:27:10.177Z,100655.81
2019-04-06T23:29:39.840Z,100657.20
2019-04-06T23:32:10.204Z,100659.12
2019-04-06T23:34:40.759Z,100653.03
2019-04-06T23:37:09.852Z,100655.36
2019-04-06T23:39:40.044Z,100658.08
2019-04-06T23:42:11.161Z,100653.31
2019-04-06T23:44:41.304Z,100658.25
2019-04-06T23:47:11.474Z,100647.70
2019-04-06T23:49:40.937Z,100647.30
2019-04-06T23:52:10.441Z,100646.56
2019-04-06T23:54:41.688Z,100653.27
2019-04-06T23:57:10.834Z,100655.16
2019-04-06T23:59:39.711Z,100651.39
